createdAt,value
2023-04-10T00:01:18.576Z,72.68
2023-04-10T00:03:46.405Z,71.88
2023-04-10T00:06:14.176Z,71.14
2023-04-10T00:08:43.151Z,71.95
2023-04-10T00:11:10.817Z,71.88
2023-04-10T00:13:38.399Z,72.11
2023-04-10T00:16:06.760Z,72.75
2023-04-10T00:18:34.354Z,72.24
2023-04-10T00:21:03.593Z,71.51
2023-04-10T00:23:31.905Z,71.50
2023-04-10T00:26:00.889Z,71.37
2023-04-10T00:28:28.534Z,69.84
2023-04-10T00:30:56.434Z,70.14
2023-04-10T00:33:24.089Z,69.80
2023-04-10T00:35:51.725Z,70.35
2023-04-10T00:38:19.539Z,70.98
2023-04-10T00:40:47.162Z,71.74
2023-04-10T00:43:16.431Z,71.84
2023-04-10T00:45:44.045Z,71.75
2023-04-10T00:48:11.971Z,72.59
2023-04-10T00:50:39.674Z,72.89
2023-04-10T00:53:07.809Z,72.48
2023-04-10T00:55:35.587Z,71.86
2023-04-10T00:58:03.791Z,72.49
2023-04-10T01:00:33.296Z,72.07
2023-04-10T01:03:01.616Z,71.41
2023-04-10T01:05:40.523Z,71.29
2023-04-10T01:08:18.744Z,72.04
2023-04-10T01:10:52.611Z,72.44
2023-04-10T01:13:25.742Z,71.98
2023-04-10T01:16:02.646Z,71.63
2023-04-10T01:18:35.417Z,72.10
2023-04-10T01:21:08.083Z,71.84
2023-04-10T01:23:53.835Z,71.41
2023-04-10T01:26:37.749Z,71.11
2023-04-10T01:29:09.411Z,70.45
2023-04-10T01:31:43.100Z,70.66
2023-04-10T01:34:16.307Z,70.11
2023-04-10T01:36:54.853Z,70.35
2023-04-10T01:39:23.787Z,70.13
2023-04-10T01:41:53.470Z,69.94
2023-04-10T01:44:25.602Z,70.88
2023-04-10T01:46:54.674Z,70.80
2023-04-10T01:49:24.816Z,70.26
2023-04-10T01:51:54.266Z,70.58
2023-04-10T01:54:22.301Z,70.82
2023-04-10T01:56:49.904Z,70.65
2023-04-10T01:59:17.753Z,70.63
2023-04-10T02:01:47.071Z,70.08
2023-04-10T02:04:14.974Z,70.49
2023-04-10T02:06:51.437Z,68.94
2023-04-10T02:09:22.874Z,69.09
2023-04-10T02:11:55.757Z,68.25
2023-04-10T02:14:24.980Z,69.04
2023-04-10T02:16:56.301Z,70.36
2023-04-10T02:19:26.133Z,70.21
2023-04-10T02:21:55.110Z,69.79
2023-04-10T02:24:23.537Z,69.30
2023-04-10T02:26:52.743Z,69.61
2023-04-10T02:29:20.382Z,69.71
2023-04-10T02:31:48.068Z,70.01
2023-04-10T02:34:17.052Z,70.01
2023-04-10T02:36:44.664Z,70.43
2023-04-10T02:39:12.306Z,70.27
2023-04-10T02:41:39.861Z,69.68
2023-04-10T02:44:07.873Z,69.44
2023-04-10T02:46:35.653Z,69.77
2023-04-10T02:49:03.345Z,70.22
2023-04-10T02:51:36.220Z,70.25
2023-04-10T02:54:04.683Z,70.62
2023-04-10T02:56:34.891Z,70.99
2023-04-10T02:59:02.546Z,71.66
2023-04-10T03:01:30.902Z,70.08
2023-04-10T03:03:59.026Z,69.75
2023-04-10T03:06:27.377Z,69.84
2023-04-10T03:08:56.613Z,69.00
2023-04-10T03:11:24.333Z,69.02
2023-04-10T03:13:52.308Z,68.21
2023-04-10T03:16:20.695Z,67.73
2023-04-10T03:18:48.600Z,67.93
2023-04-10T03:21:16.402Z,68.75
2023-04-10T03:23:44.081Z,68.99
2023-04-10T03:26:13.028Z,70.10
2023-04-10T03:28:41.424Z,69.60
2023-04-10T03:31:09.771Z,70.03
2023-04-10T03:33:37.509Z,70.82
2023-04-10T03:36:05.982Z,70.97
2023-04-10T03:38:33.618Z,71.39
2023-04-10T03:41:01.223Z,71.75
2023-04-10T03:43:30.595Z,71.18
2023-04-10T03:45:58.281Z,71.24
2023-04-10T03:48:28.241Z,71.11
2023-04-10T03:50:56.423Z,70.50
2023-04-10T03:53:24.252Z,70.94
2023-04-10T03:55:52.452Z,69.57
2023-04-10T03:58:20.364Z,68.87
2023-04-10T04:00:49.352Z,68.72
2023-04-10T04:03:17.257Z,68.20
2023-04-10T04:05:45.469Z,68.32
2023-04-10T04:08:14.058Z,68.74
2023-04-10T04:10:41.719Z,67.63
2023-04-10T04:13:09.357Z,67.09
2023-04-10T04:15:37.047Z,68.28
2023-04-10T04:18:06.188Z,68.39
2023-04-10T04:20:33.854Z,67.73
2023-04-10T04:23:01.457Z,68.09
2023-04-10T04:25:29.107Z,68.74
2023-04-10T04:27:57.583Z,69.37
2023-04-10T04:30:25.227Z,69.63
2023-04-10T04:32:52.957Z,69.73
2023-04-10T04:35:22.705Z,70.02
2023-04-10T04:37:50.287Z,71.40
2023-04-10T04:40:18.341Z,71.31
2023-04-10T04:42:46.053Z,71.36
2023-04-10T04:45:14.203Z,71.99
2023-04-10T04:47:41.851Z,71.95
2023-04-10T04:50:11.404Z,71.50
2023-04-10T04:52:40.388Z,72.27
2023-04-10T04:55:09.672Z,72.60
2023-04-10T04:57:37.323Z,72.92
2023-04-10T05:00:06.211Z,72.94
2023-04-10T05:02:34.022Z,73.39
2023-04-10T05:05:02.088Z,73.27
2023-04-10T05:07:29.927Z,72.96
2023-04-10T05:09:58.897Z,72.51
2023-04-10T05:12:26.513Z,72.33
2023-04-10T05:14:54.321Z,71.73
2023-04-10T05:17:21.988Z,72.29
2023-04-10T05:19:49.806Z,72.30
2023-04-10T05:22:18.650Z,72.25
2023-04-10T05:24:46.582Z,71.62
2023-04-10T05:27:15.616Z,71.66
2023-04-10T05:29:43.203Z,72.07
2023-04-10T05:32:10.968Z,72.15
2023-04-10T05:34:38.654Z,70.29
2023-04-10T05:37:06.308Z,70.33
2023-04-10T05:39:33.958Z,69.31
2023-04-10T05:42:01.750Z,68.43
2023-04-10T05:44:31.718Z,67.56
2023-04-10T05:46:59.369Z,66.71
2023-04-10T05:49:27.041Z,65.67
2023-04-10T05:51:54.828Z,65.96
2023-04-10T05:54:22.727Z,66.24
2023-04-10T05:56:50.430Z,66.99
2023-04-10T05:59:18.093Z,65.34
2023-04-10T06:01:47.444Z,65.52
2023-04-10T06:04:15.459Z,64.90
2023-04-10T06:06:43.371Z,62.75
2023-04-10T06:09:11.020Z,62.94
2023-04-10T06:11:38.699Z,59.57
2023-04-10T06:14:06.713Z,60.28
2023-04-10T06:16:34.604Z,59.33
2023-04-10T06:19:03.817Z,58.88
2023-04-10T06:21:31.662Z,59.50
2023-04-10T06:23:59.298Z,58.63
2023-04-10T06:26:27.281Z,61.58
2023-04-10T06:28:55.474Z,57.62
2023-04-10T06:31:23.362Z,56.04
2023-04-10T06:33:51.548Z,53.56
2023-04-10T06:36:20.580Z,53.62
2023-04-10T06:38:48.255Z,53.01
2023-04-10T06:41:15.995Z,50.04
2023-04-10T06:43:43.837Z,53.68
2023-04-10T06:46:11.420Z,51.23
2023-04-10T06:48:38.976Z,50.97
2023-04-10T06:51:07.115Z,49.52
2023-04-10T06:53:36.322Z,48.59
2023-04-10T06:56:04.265Z,48.32
2023-04-10T06:58:32.157Z,48.32
2023-04-10T07:03:32.372Z,46.57
2023-04-10T07:06:00.502Z,46.24
2023-04-10T07:08:28.210Z,45.26
2023-04-10T07:10:58.630Z,44.92
2023-04-10T07:13:26.596Z,44.00
2023-04-10T07:15:54.319Z,43.42
2023-04-10T07:18:22.339Z,42.55
2023-04-10T07:20:52.027Z,43.18
2023-04-10T07:23:20.427Z,45.09
2023-04-10T07:25:48.162Z,43.63
2023-04-10T07:28:17.164Z,45.05
2023-04-10T07:30:44.851Z,44.14
2023-04-10T07:33:12.640Z,44.51
2023-04-10T07:35:40.516Z,44.01
2023-04-10T07:38:08.162Z,42.64
2023-04-10T07:40:35.797Z,42.47
2023-04-10T07:43:03.421Z,43.63
2023-04-10T07:45:32.689Z,44.84
2023-04-10T07:48:00.422Z,45.43
2023-04-10T07:50:28.286Z,43.20
2023-04-10T07:52:56.312Z,42.18
2023-04-10T07:55:23.974Z,41.32
2023-04-10T07:57:52.326Z,42.62
2023-04-10T08:00:20.348Z,42.29
2023-04-10T08:02:49.471Z,42.72
2023-04-10T08:05:17.336Z,43.10
2023-04-10T08:07:45.899Z,42.14
2023-04-10T08:10:13.841Z,42.94
2023-04-10T08:12:41.465Z,42.39
2023-04-10T08:15:09.885Z,41.08
2023-04-10T08:17:37.686Z,40.93
2023-04-10T08:20:08.252Z,42.30
2023-04-10T08:22:35.889Z,41.11
2023-04-10T08:25:03.796Z,40.95
2023-04-10T08:27:31.651Z,41.86
2023-04-10T08:29:59.310Z,42.44
2023-04-10T08:32:27.579Z,42.03
2023-04-10T08:34:55.352Z,42.19
2023-04-10T08:37:24.440Z,39.91
2023-04-10T08:39:52.163Z,41.10
2023-04-10T08:42:19.877Z,39.95
2023-04-10T08:44:50.202Z,38.67
2023-04-10T08:47:24.451Z,38.55
2023-04-10T08:49:55.786Z,37.77
2023-04-10T08:52:26.594Z,37.57
2023-04-10T08:54:56.567Z,37.75
2023-04-10T08:57:26.777Z,37.78
2023-04-10T08:59:54.577Z,37.85
2023-04-10T09:02:23.149Z,38.68
2023-04-10T09:04:53.987Z,40.02
2023-04-10T09:07:23.063Z,39.86
2023-04-10T09:09:52.161Z,38.46
2023-04-10T09:12:19.765Z,38.01
2023-04-10T09:14:49.674Z,38.02
2023-04-10T09:17:19.491Z,37.91
2023-04-10T09:19:48.553Z,37.12
2023-04-10T09:22:16.972Z,37.19
2023-04-10T09:24:46.655Z,36.30
2023-04-10T09:27:31.267Z,36.32
2023-04-10T09:29:59.930Z,37.64
2023-04-10T09:32:39.382Z,36.96
2023-04-10T09:35:08.603Z,36.49
2023-04-10T09:37:37.845Z,36.94
2023-04-10T09:40:06.848Z,35.27
2023-04-10T09:42:37.635Z,34.92
2023-04-10T09:45:06.381Z,36.05
2023-04-10T09:47:34.255Z,35.07
2023-04-10T09:50:02.756Z,34.34
2023-04-10T09:52:32.506Z,34.71
2023-04-10T09:55:01.921Z,33.49
2023-04-10T09:57:31.869Z,33.24
2023-04-10T10:00:02.582Z,33.73
2023-04-10T10:02:31.643Z,33.37
2023-04-10T10:05:01.672Z,32.53
2023-04-10T10:07:31.444Z,32.61
2023-04-10T10:09:59.724Z,31.99
2023-04-10T10:12:35.477Z,31.80
2023-04-10T10:15:11.830Z,30.59
2023-04-10T10:17:44.897Z,30.72
2023-04-10T10:20:14.469Z,31.65
2023-04-10T10:22:42.942Z,30.42
2023-04-10T10:25:11.783Z,30.48
2023-04-10T10:27:40.969Z,30.18
2023-04-10T10:30:27.949Z,29.31
2023-04-10T10:32:58.773Z,29.51
2023-04-10T10:35:29.700Z,29.45
2023-04-10T10:38:00.144Z,29.47
2023-04-10T10:40:32.933Z,29.09
2023-04-10T10:43:13.095Z,30.26
2023-04-10T10:45:52.046Z,29.49
2023-04-10T10:48:19.745Z,30.43
2023-04-10T10:50:57.054Z,29.64
2023-04-10T10:53:36.188Z,28.77
2023-04-10T10:56:38.523Z,29.20
2023-04-10T10:59:06.248Z,28.38
2023-04-10T11:01:35.437Z,27.49
2023-04-10T11:04:42.310Z,27.87
2023-04-10T11:07:10.364Z,28.08
2023-04-10T11:09:49.052Z,28.94
2023-04-10T11:12:17.267Z,27.82
2023-04-10T11:14:46.372Z,26.69
2023-04-10T11:17:48.953Z,27.73
2023-04-10T11:20:16.862Z,27.30
2023-04-10T11:23:11.231Z,27.54
2023-04-10T11:25:50.356Z,27.25
2023-04-10T11:28:38.256Z,26.55
2023-04-10T11:31:20.959Z,26.12
2023-04-10T11:34:01.297Z,27.07
2023-04-10T11:36:29.585Z,26.84
2023-04-10T11:38:58.723Z,26.91
2023-04-10T11:41:31.968Z,26.89
2023-04-10T11:44:00.396Z,26.26
2023-04-10T11:46:28.291Z,26.30
2023-04-10T11:49:00.632Z,28.22
2023-04-10T11:51:29.357Z,27.49
2023-04-10T11:54:10.733Z,27.46
2023-04-10T11:56:40.420Z,27.66
2023-04-10T11:59:10.950Z,27.28
2023-04-10T12:01:41.914Z,26.39
2023-04-10T12:04:19.592Z,27.57
2023-04-10T12:06:48.374Z,27.31
2023-04-10T12:09:17.502Z,27.05
2023-04-10T12:11:56.201Z,27.06
2023-04-10T12:14:25.261Z,27.01
2023-04-10T12:16:53.851Z,28.00
2023-04-10T12:19:23.712Z,27.98
2023-04-10T12:21:51.678Z,27.16
2023-04-10T12:24:44.252Z,27.26
2023-04-10T12:27:19.037Z,26.08
2023-04-10T12:29:47.387Z,25.29
2023-04-10T12:32:15.779Z,26.23
2023-04-10T12:34:51.480Z,25.75
2023-04-10T12:37:19.238Z,26.14
2023-04-10T12:39:46.971Z,26.29
2023-04-10T12:42:15.964Z,25.80
2023-04-10T12:44:54.109Z,26.31
2023-04-10T12:47:22.052Z,26.20
2023-04-10T12:50:08.765Z,25.72
2023-04-10T12:52:36.972Z,26.90
2023-04-10T12:55:13.029Z,27.25
2023-04-10T12:57:42.404Z,27.84
2023-04-10T13:00:12.431Z,26.97
2023-04-10T13:02:41.170Z,27.29
2023-04-10T13:05:11.438Z,26.63
2023-04-10T13:07:39.546Z,25.64
2023-04-10T13:10:08.392Z,26.45
2023-04-10T13:12:38.084Z,26.42
2023-04-10T13:15:07.465Z,25.94
2023-04-10T13:17:35.594Z,27.44
2023-04-10T13:20:03.674Z,27.90
2023-04-10T13:22:32.778Z,27.25
2023-04-10T13:25:00.454Z,27.19
2023-04-10T13:27:28.199Z,27.09
2023-04-10T13:29:56.469Z,27.56
2023-04-10T13:32:24.107Z,28.18
2023-04-10T13:34:52.339Z,28.23
2023-04-10T13:37:20.314Z,28.64
2023-04-10T13:39:49.673Z,28.60
2023-04-10T13:42:17.280Z,28.41
2023-04-10T13:44:45.264Z,28.15
2023-04-10T13:47:12.947Z,27.86
2023-04-10T13:49:40.777Z,28.86
2023-04-10T13:52:08.387Z,29.03
2023-04-10T13:54:36.153Z,28.18
2023-04-10T13:57:07.091Z,28.18
2023-04-10T13:59:34.731Z,27.62
2023-04-10T14:02:02.779Z,26.69
2023-04-10T14:04:30.754Z,26.52
2023-04-10T14:07:00.461Z,26.51
2023-04-10T14:09:28.195Z,26.43
2023-04-10T14:11:56.063Z,26.88
2023-04-10T14:14:25.059Z,27.19
2023-04-10T14:16:52.784Z,26.88
2023-04-10T14:19:20.697Z,26.78
2023-04-10T14:21:48.309Z,26.75
2023-04-10T14:24:15.933Z,26.24
2023-04-10T14:26:43.561Z,26.27
2023-04-10T14:29:11.233Z,26.05
2023-04-10T14:31:47.135Z,25.81
2023-04-10T14:34:22.548Z,25.79
2023-04-10T14:36:55.794Z,26.00
2023-04-10T14:39:25.050Z,26.12
2023-04-10T14:41:53.353Z,25.44
2023-04-10T14:44:21.324Z,26.12
2023-04-10T14:46:50.443Z,26.48
2023-04-10T14:49:18.197Z,27.36
2023-04-10T14:51:48.325Z,27.67
2023-04-10T14:54:16.997Z,27.92
2023-04-10T14:56:44.978Z,27.97
2023-04-10T14:59:12.635Z,28.35
2023-04-10T15:01:40.340Z,28.84
2023-04-10T15:04:09.587Z,28.84
2023-04-10T15:06:37.420Z,28.98
2023-04-10T15:09:05.178Z,28.84
2023-04-10T15:11:33.098Z,29.70
2023-04-10T15:14:02.264Z,29.44
2023-04-10T15:16:30.479Z,29.40
2023-04-10T15:18:58.195Z,30.10
2023-04-10T15:21:28.015Z,30.46
2023-04-10T15:23:55.984Z,30.70
2023-04-10T15:26:23.995Z,31.08
2023-04-10T15:28:51.693Z,31.66
2023-04-10T15:31:23.146Z,31.66
2023-04-10T15:33:52.499Z,31.72
2023-04-10T15:36:20.425Z,32.06
2023-04-10T15:38:50.376Z,32.58
2023-04-10T15:41:18.331Z,32.81
2023-04-10T15:43:46.365Z,32.69
2023-04-10T15:47:05.178Z,32.59
2023-04-10T15:49:37.933Z,32.18
2023-04-10T15:52:06.641Z,32.42
2023-04-10T15:54:36.862Z,33.04
2023-04-10T15:57:04.754Z,32.67
2023-04-10T15:59:34.013Z,33.02
2023-04-10T16:02:02.002Z,32.96
2023-04-10T16:04:31.598Z,33.22
2023-04-10T16:06:59.718Z,32.83
2023-04-10T16:09:27.627Z,32.64
2023-04-10T16:11:58.017Z,32.82
2023-04-10T16:14:25.840Z,33.27
2023-04-10T16:16:53.707Z,32.73
2023-04-10T16:19:21.910Z,33.02
2023-04-10T16:21:51.133Z,32.28
2023-04-10T16:24:19.125Z,32.75
2023-04-10T16:26:47.127Z,33.06
2023-04-10T16:29:19.526Z,32.97
2023-04-10T16:31:48.274Z,33.25
2023-04-10T16:34:16.477Z,33.54
2023-04-10T16:36:44.288Z,34.06
2023-04-10T16:39:12.364Z,33.97
2023-04-10T16:41:40.122Z,34.07
2023-04-10T16:44:08.109Z,34.14
2023-04-10T16:46:37.692Z,34.68
2023-04-10T16:49:05.711Z,34.25
2023-04-10T16:51:33.452Z,34.41
2023-04-10T16:54:02.470Z,34.97
2023-04-10T16:56:32.167Z,34.77
2023-04-10T16:58:59.932Z,34.69
2023-04-10T17:01:28.472Z,34.80
2023-04-10T17:03:57.631Z,35.06
2023-04-10T17:06:25.770Z,34.97
2023-04-10T17:08:53.698Z,34.79
2023-04-10T17:11:21.630Z,34.88
2023-04-10T17:13:49.322Z,34.85
2023-04-10T17:16:17.272Z,34.32
2023-04-10T17:18:45.236Z,34.42
2023-04-10T17:21:15.253Z,34.31
2023-04-10T17:23:43.267Z,34.49
2023-04-10T17:26:17.416Z,34.94
2023-04-10T17:28:46.299Z,34.32
2023-04-10T17:31:14.808Z,34.57
2023-04-10T17:33:42.841Z,34.56
2023-04-10T17:36:13.377Z,34.62
2023-04-10T17:38:43.398Z,34.91
2023-04-10T17:41:11.402Z,34.94
2023-04-10T17:43:40.161Z,35.28
2023-04-10T17:46:08.545Z,34.93
2023-04-10T17:48:38.969Z,34.88
2023-04-10T17:51:07.342Z,35.30
2023-04-10T17:53:35.810Z,35.26
2023-04-10T17:56:05.492Z,35.78
2023-04-10T17:58:33.429Z,35.54
2023-04-10T18:01:01.272Z,36.13
2023-04-10T18:03:29.367Z,35.84
2023-04-10T18:05:57.269Z,36.08
2023-04-10T18:08:24.997Z,36.25
2023-04-10T18:10:52.872Z,36.43
2023-04-10T18:13:21.994Z,36.70
2023-04-10T18:15:49.755Z,36.89
2023-04-10T18:18:17.373Z,36.87
2023-04-10T18:20:45.069Z,37.04
2023-04-10T18:23:13.270Z,36.95
2023-04-10T18:25:41.048Z,37.49
2023-04-10T18:28:14.972Z,38.18
2023-04-10T18:30:45.576Z,38.11
2023-04-10T18:33:14.105Z,37.92
2023-04-10T18:35:42.171Z,37.93
2023-04-10T18:38:10.469Z,38.97
2023-04-10T18:40:38.240Z,38.84
2023-04-10T18:43:06.380Z,39.51
2023-04-10T18:45:34.411Z,39.54
2023-04-10T18:48:04.662Z,39.65
2023-04-10T18:50:35.785Z,39.77
2023-04-10T18:53:03.934Z,39.99
2023-04-10T18:55:32.212Z,39.64
2023-04-10T18:58:00.535Z,40.06
2023-04-10T19:00:28.442Z,40.04
2023-04-10T19:02:56.713Z,40.29
2023-04-10T19:05:29.126Z,40.55
2023-04-10T19:08:04.152Z,40.90
2023-04-10T19:10:33.152Z,41.55
2023-04-10T19:13:01.034Z,42.39
2023-04-10T19:15:28.871Z,42.25
2023-04-10T19:17:57.174Z,42.20
2023-04-10T19:20:50.208Z,41.80
2023-04-10T19:23:14.701Z,41.85
2023-04-10T19:25:43.663Z,41.40
2023-04-10T19:28:11.682Z,41.56
2023-04-10T19:30:39.643Z,41.77
2023-04-10T19:33:07.490Z,41.64
2023-04-10T19:35:36.908Z,41.73
2023-04-10T19:38:04.856Z,41.90
2023-04-10T19:40:32.814Z,42.32
2023-04-10T19:43:01.985Z,42.65
2023-04-10T19:45:33.134Z,42.75
2023-04-10T19:48:01.188Z,42.94
2023-04-10T19:50:30.701Z,43.04
2023-04-10T19:53:00.560Z,42.99
2023-04-10T19:55:29.089Z,42.82
2023-04-10T19:57:57.106Z,43.33
2023-04-10T20:00:25.100Z,43.56
2023-04-10T20:02:53.252Z,43.49
2023-04-10T20:05:21.785Z,43.51
2023-04-10T20:07:50.310Z,44.04
2023-04-10T20:10:20.999Z,44.06
2023-04-10T20:12:48.637Z,43.92
2023-04-10T20:15:16.425Z,44.98
2023-04-10T20:17:44.084Z,44.56
2023-04-10T20:20:13.728Z,45.64
2023-04-10T20:22:41.471Z,46.88
2023-04-10T20:25:09.872Z,46.89
2023-04-10T20:27:38.990Z,46.79
2023-04-10T20:30:08.272Z,46.97
2023-04-10T20:32:37.041Z,46.88
2023-04-10T20:35:05.299Z,47.18
2023-04-10T20:37:33.008Z,47.05
2023-04-10T20:40:01.116Z,47.16
2023-04-10T20:42:28.970Z,47.43
2023-04-10T20:44:59.161Z,47.24
2023-04-10T20:47:26.870Z,46.99
2023-04-10T20:49:55.127Z,47.12
2023-04-10T20:52:24.001Z,47.30
2023-04-10T20:54:52.805Z,47.48
2023-04-10T20:57:20.837Z,47.39
2023-04-10T20:59:48.616Z,47.99
2023-04-10T21:02:18.208Z,48.27
2023-04-10T21:04:45.962Z,48.23
2023-04-10T21:07:13.636Z,48.33
2023-04-10T21:09:41.410Z,48.60
2023-04-10T21:12:09.173Z,48.50
2023-04-10T21:14:37.093Z,48.65
2023-04-10T21:17:04.912Z,48.69
2023-04-10T21:19:34.438Z,48.98
2023-04-10T21:22:02.405Z,48.74
2023-04-10T21:24:30.494Z,48.90
2023-04-10T21:26:59.643Z,48.89
2023-04-10T21:29:28.586Z,48.92
2023-04-10T21:31:57.008Z,48.77
2023-04-10T21:34:25.148Z,48.91
2023-04-10T21:36:55.206Z,48.60
2023-04-10T21:39:23.004Z,48.66
2023-04-10T21:41:55.319Z,48.84
2023-04-10T21:44:23.387Z,48.70
2023-04-10T21:46:51.220Z,48.66
2023-04-10T21:49:18.987Z,48.94
2023-04-10T21:51:46.632Z,49.17
2023-04-10T21:54:16.023Z,49.14
2023-04-10T21:56:43.628Z,49.15
2023-04-10T21:59:11.553Z,48.97
2023-04-10T22:01:41.490Z,49.22
2023-04-10T22:04:09.477Z,49.32
2023-04-10T22:06:37.229Z,49.00
2023-04-10T22:09:05.058Z,49.18
2023-04-10T22:11:34.675Z,49.66
2023-04-10T22:14:14.887Z,51.28
2023-04-10T22:16:45.538Z,52.21
2023-04-10T22:19:13.417Z,54.59
2023-04-10T22:21:41.185Z,55.16
2023-04-10T22:24:09.267Z,57.89
2023-04-10T22:26:38.351Z,60.95
2023-04-10T22:29:06.033Z,61.78
2023-04-10T22:31:33.740Z,62.02
2023-04-10T22:34:01.422Z,62.39
2023-04-10T22:36:32.795Z,62.04
2023-04-10T22:39:00.490Z,63.13
2023-04-10T22:41:28.403Z,63.70
2023-04-10T22:43:57.468Z,64.18
2023-04-10T22:46:25.363Z,65.63
2023-04-10T22:48:54.186Z,66.11
2023-04-10T22:51:22.089Z,66.42
2023-04-10T22:53:49.735Z,66.92
2023-04-10T22:56:18.549Z,68.61
2023-04-10T22:58:46.286Z,69.59
2023-04-10T23:01:15.767Z,72.14
2023-04-10T23:03:43.449Z,73.56
2023-04-10T23:06:11.174Z,74.83
2023-04-10T23:08:38.888Z,76.87
2023-04-10T23:11:07.024Z,78.33
2023-04-10T23:13:34.882Z,78.56
2023-04-10T23:16:02.516Z,79.80
2023-04-10T23:18:31.511Z,80.04
2023-04-10T23:20:59.150Z,80.42
2023-04-10T23:23:26.877Z,80.34
2023-04-10T23:25:59.142Z,80.49
2023-04-10T23:28:26.955Z,80.91
2023-04-10T23:30:54.643Z,81.13
2023-04-10T23:33:22.525Z,81.25
2023-04-10T23:35:51.606Z,82.12
2023-04-10T23:38:19.429Z,82.42
2023-04-10T23:40:47.343Z,83.20
2023-04-10T23:43:15.214Z,83.45
2023-04-10T23:45:42.905Z,84.49
2023-04-10T23:48:11.710Z,85.11
2023-04-10T23:50:39.641Z,85.92
2023-04-10T23:53:09.169Z,85.15
2023-04-10T23:55:36.891Z,83.83
2023-04-10T23:58:04.714Z,83.58
